createdAt,value
2018-02-15T00:02:15.728Z,3.00
2018-02-15T00:04:44.760Z,3.10
2018-02-15T00:07:13.004Z,3.00
2018-02-15T00:09:41.300Z,3.10
2018-02-15T00:12:10.281Z,3.00
2018-02-15T00:14:38.534Z,3.00
2018-02-15T00:17:07.550Z,3.10
2018-02-15T00:19:35.862Z,3.00
2018-02-15T00:22:04.107Z,3.10
2018-02-15T00:24:33.769Z,3.10
2018-02-15T00:27:03.107Z,3.10
2018-02-15T00:29:31.585Z,3.10
2018-02-15T00:31:59.842Z,3.10
2018-02-15T00:34:28.864Z,3.10
2018-02-15T00:36:57.114Z,3.10
2018-02-15T00:39:25.471Z,3.10
2018-02-15T00:41:53.746Z,3.20
2018-02-15T00:44:22.859Z,3.10
2018-02-15T00:46:51.126Z,3.10
2018-02-15T00:49:20.252Z,3.20
2018-02-15T00:51:48.520Z,3.10
2018-02-15T00:54:16.779Z,3.20
2018-02-15T00:56:45.810Z,3.20
2018-02-15T00:59:14.051Z,3.10
2018-02-15T01:01:42.318Z,3.20
2018-02-15T01:04:10.655Z,3.20
2018-02-15T01:06:38.918Z,3.20
2018-02-15T01:09:07.176Z,3.20
2018-02-15T01:11:35.506Z,3.20
2018-02-15T01:14:03.923Z,3.20
2018-02-15T01:16:32.218Z,3.20
2018-02-15T01:19:00.529Z,3.20
2018-02-15T01:21:28.769Z,3.20
2018-02-15T01:23:57.035Z,3.20
2018-02-15T01:26:25.290Z,3.20
2018-02-15T01:28:53.601Z,3.20
2018-02-15T01:31:21.870Z,3.20
2018-02-15T01:33:50.182Z,3.30
2018-02-15T01:36:18.466Z,3.30
2018-02-15T01:38:47.473Z,3.30
2018-02-15T01:41:15.738Z,3.30
2018-02-15T01:43:44.783Z,3.30
2018-02-15T01:46:13.019Z,3.30
2018-02-15T01:48:41.406Z,3.30
2018-02-15T01:51:09.657Z,3.30
2018-02-15T01:53:38.689Z,3.40
2018-02-15T01:56:06.952Z,3.30
2018-02-15T01:58:35.275Z,3.40
2018-02-15T02:01:03.487Z,3.40
2018-02-15T02:03:31.791Z,3.40
2018-02-15T02:06:00.043Z,3.40
2018-02-15T02:08:28.312Z,3.40
2018-02-15T02:10:56.555Z,3.40
2018-02-15T02:13:24.818Z,3.40
2018-02-15T02:15:53.166Z,3.40
2018-02-15T02:18:21.526Z,3.40
2018-02-15T02:20:49.784Z,3.40
2018-02-15T02:23:18.042Z,3.40
2018-02-15T02:25:47.074Z,3.40
2018-02-15T02:28:15.316Z,3.40
2018-02-15T02:30:43.657Z,3.40
2018-02-15T02:33:11.934Z,3.40
2018-02-15T02:35:40.271Z,3.30
2018-02-15T02:38:08.609Z,3.40
2018-02-15T02:40:36.855Z,3.40
2018-02-15T02:43:05.166Z,3.40
2018-02-15T02:45:34.201Z,3.40
2018-02-15T02:48:02.475Z,3.40
2018-02-15T02:50:30.800Z,3.40
2018-02-15T02:52:59.025Z,3.30
2018-02-15T02:55:27.286Z,3.20
2018-02-15T02:57:55.533Z,3.10
2018-02-15T03:00:24.561Z,3.00
2018-02-15T03:02:52.874Z,2.90
2018-02-15T03:05:21.148Z,2.90
2018-02-15T03:07:49.385Z,2.80
2018-02-15T03:10:17.678Z,2.70
2018-02-15T03:12:46.730Z,2.50
2018-02-15T03:15:14.998Z,2.50
2018-02-15T03:17:43.386Z,2.40
2018-02-15T03:20:11.798Z,2.30
2018-02-15T03:22:40.063Z,2.20
2018-02-15T03:25:08.310Z,2.10
2018-02-15T03:27:36.571Z,1.90
2018-02-15T03:30:05.603Z,1.70
2018-02-15T03:32:33.894Z,1.70
2018-02-15T03:35:02.200Z,1.70
2018-02-15T03:37:30.495Z,1.60
2018-02-15T03:39:59.538Z,1.50
2018-02-15T03:42:27.911Z,1.50
2018-02-15T03:44:56.193Z,1.40
2018-02-15T03:47:24.447Z,1.40
2018-02-15T03:49:52.714Z,1.30
2018-02-15T03:52:20.976Z,1.30
2018-02-15T03:54:49.254Z,1.30
2018-02-15T03:57:17.595Z,1.20
2018-02-15T03:59:45.826Z,1.20
2018-02-15T04:02:14.191Z,1.10
2018-02-15T04:04:42.627Z,1.10
2018-02-15T04:07:10.846Z,1.10
2018-02-15T04:09:39.116Z,1.10
2018-02-15T04:12:07.372Z,1.00
2018-02-15T04:14:35.655Z,1.00
2018-02-15T04:17:03.898Z,1.00
2018-02-15T04:19:32.163Z,1.00
2018-02-15T04:22:00.411Z,1.00
2018-02-15T04:24:28.662Z,1.00
2018-02-15T04:26:56.996Z,1.00
2018-02-15T04:29:25.235Z,0.90
2018-02-15T04:31:53.492Z,0.90
2018-02-15T04:34:21.913Z,1.00
2018-02-15T04:36:50.195Z,0.90
2018-02-15T04:39:18.535Z,1.00
2018-02-15T04:41:46.821Z,1.00
2018-02-15T04:44:15.070Z,0.90
2018-02-15T04:46:43.431Z,0.90
2018-02-15T04:49:11.702Z,1.00
2018-02-15T04:51:39.979Z,1.00
2018-02-15T04:54:08.242Z,1.00
2018-02-15T04:56:36.519Z,1.00
2018-02-15T04:59:04.800Z,1.00
2018-02-15T05:01:33.848Z,0.90
2018-02-15T05:04:02.115Z,0.90
2018-02-15T05:06:30.371Z,1.00
2018-02-15T05:08:58.638Z,0.90
2018-02-15T05:11:26.887Z,0.90
2018-02-15T05:13:55.174Z,0.90
2018-02-15T05:16:23.443Z,0.90
2018-02-15T05:18:52.463Z,0.90
2018-02-15T05:21:20.731Z,0.90
2018-02-15T05:23:49.019Z,0.90
2018-02-15T05:26:17.262Z,0.90
2018-02-15T05:28:45.545Z,0.90
2018-02-15T05:31:13.834Z,0.90
2018-02-15T05:33:42.097Z,0.80
2018-02-15T05:36:10.339Z,0.80
2018-02-15T05:38:39.387Z,0.80
2018-02-15T05:41:07.606Z,0.80
2018-02-15T05:43:36.057Z,0.80
2018-02-15T05:46:04.302Z,0.80
2018-02-15T05:48:32.581Z,0.80
2018-02-15T05:51:00.822Z,0.80
2018-02-15T05:53:29.110Z,0.90
2018-02-15T05:55:57.409Z,0.90
2018-02-15T05:58:25.661Z,0.90
2018-02-15T06:00:53.941Z,0.90
2018-02-15T06:03:22.208Z,0.90
2018-02-15T06:05:50.543Z,0.90
2018-02-15T06:08:18.796Z,0.90
2018-02-15T06:10:47.271Z,0.90
2018-02-15T06:13:15.684Z,0.90
2018-02-15T06:15:44.731Z,0.90
2018-02-15T06:18:12.990Z,0.90
2018-02-15T06:20:41.237Z,0.90
2018-02-15T06:23:10.274Z,1.00
2018-02-15T06:25:38.529Z,0.90
2018-02-15T06:28:06.828Z,1.00
2018-02-15T06:30:35.148Z,1.00
2018-02-15T06:33:04.234Z,1.00
2018-02-15T06:35:32.495Z,1.00
2018-02-15T06:38:00.747Z,1.00
2018-02-15T06:40:29.118Z,1.10
2018-02-15T06:42:57.398Z,1.10
2018-02-15T06:45:25.642Z,1.10
2018-02-15T06:47:53.910Z,1.10
2018-02-15T06:50:22.215Z,1.20
2018-02-15T06:52:50.542Z,1.20
2018-02-15T06:55:18.803Z,1.10
2018-02-15T06:57:47.231Z,1.20
2018-02-15T07:00:15.476Z,1.20
2018-02-15T07:02:43.787Z,1.20
2018-02-15T07:05:12.178Z,1.10
2018-02-15T07:07:40.570Z,1.20
2018-02-15T07:10:08.829Z,1.20
2018-02-15T07:12:37.138Z,1.20
2018-02-15T07:15:05.415Z,1.20
2018-02-15T07:17:33.796Z,1.20
2018-02-15T07:20:02.010Z,1.20
2018-02-15T07:22:30.349Z,1.20
2018-02-15T07:24:58.566Z,1.20
2018-02-15T07:27:26.881Z,1.30
2018-02-15T07:29:55.158Z,1.30
2018-02-15T07:32:23.427Z,1.30
2018-02-15T07:34:51.734Z,1.30
2018-02-15T07:37:20.747Z,1.30
2018-02-15T07:39:49.024Z,1.30
2018-02-15T07:42:17.298Z,1.30
2018-02-15T07:44:45.576Z,1.30
2018-02-15T07:47:13.878Z,1.40
2018-02-15T07:49:42.147Z,1.40
2018-02-15T07:52:10.386Z,1.40
2018-02-15T07:54:38.660Z,1.40
2018-02-15T07:57:07.937Z,1.40
2018-02-15T07:59:36.178Z,1.40
2018-02-15T08:02:04.436Z,1.40
2018-02-15T08:04:32.694Z,1.50
2018-02-15T08:07:00.963Z,1.50
2018-02-15T08:09:29.219Z,1.40
2018-02-15T08:11:58.243Z,1.50
2018-02-15T08:14:26.495Z,1.50
2018-02-15T08:16:55.534Z,1.50
2018-02-15T08:19:23.803Z,1.50
2018-02-15T08:21:52.050Z,1.50
2018-02-15T08:24:20.298Z,1.50
2018-02-15T08:26:49.418Z,1.60
2018-02-15T08:29:17.694Z,1.50
2018-02-15T08:31:45.977Z,1.60
2018-02-15T08:34:14.248Z,1.60
2018-02-15T08:36:42.519Z,1.60
2018-02-15T08:39:10.812Z,1.60
2018-02-15T08:41:39.066Z,1.60
2018-02-15T08:44:07.412Z,1.70
2018-02-15T08:46:35.650Z,1.70
2018-02-15T08:49:03.898Z,1.80
2018-02-15T08:51:32.195Z,1.80
2018-02-15T08:54:00.492Z,1.70
2018-02-15T08:56:30.250Z,1.70
2018-02-15T08:58:58.662Z,1.70
2018-02-15T09:01:26.931Z,1.80
2018-02-15T09:03:55.231Z,1.80
2018-02-15T09:06:23.495Z,1.80
2018-02-15T09:08:51.750Z,1.90
2018-02-15T09:11:20.019Z,1.90
2018-02-15T09:13:48.289Z,1.80
2018-02-15T09:16:16.546Z,1.90
2018-02-15T09:18:44.818Z,1.90
2018-02-15T09:21:13.190Z,1.90
2018-02-15T09:23:43.022Z,1.90
2018-02-15T09:26:11.282Z,1.90
2018-02-15T09:28:40.329Z,1.90
2018-02-15T09:31:08.655Z,1.90
2018-02-15T09:33:37.663Z,2.00
2018-02-15T09:36:05.922Z,1.90
2018-02-15T09:38:34.207Z,2.00
2018-02-15T09:41:02.538Z,2.00
2018-02-15T09:43:32.291Z,2.00
2018-02-15T09:46:00.565Z,2.00
2018-02-15T09:48:28.907Z,2.10
2018-02-15T09:50:57.143Z,2.10
2018-02-15T09:53:25.457Z,2.10
2018-02-15T09:55:53.807Z,2.10
2018-02-15T09:58:23.634Z,2.10
2018-02-15T10:00:52.727Z,2.20
2018-02-15T10:03:21.825Z,2.20
2018-02-15T10:05:50.142Z,2.10
2018-02-15T10:08:19.284Z,2.20
2018-02-15T10:10:47.584Z,2.10
2018-02-15T10:13:15.937Z,2.20
2018-02-15T10:15:44.332Z,2.10
2018-02-15T10:18:12.670Z,2.10
2018-02-15T10:20:40.927Z,2.10
2018-02-15T10:23:09.221Z,2.10
2018-02-15T10:25:37.466Z,2.00
2018-02-15T10:28:05.731Z,2.10
2018-02-15T10:30:33.995Z,2.00
2018-02-15T10:33:03.030Z,2.10
2018-02-15T10:35:31.284Z,2.00
2018-02-15T10:37:59.834Z,2.10
2018-02-15T10:40:28.104Z,2.10
2018-02-15T10:42:57.171Z,2.20
2018-02-15T10:45:25.459Z,2.10
2018-02-15T10:47:53.962Z,2.20
2018-02-15T10:50:23.048Z,2.20
2018-02-15T10:52:51.427Z,2.20
2018-02-15T10:55:19.663Z,2.30
2018-02-15T10:57:47.933Z,2.30
2018-02-15T11:00:16.457Z,2.30
2018-02-15T11:02:44.764Z,2.30
2018-02-15T11:05:13.033Z,2.30
2018-02-15T11:07:41.369Z,2.30
2018-02-15T11:10:09.872Z,2.30
2018-02-15T11:12:38.963Z,2.40
2018-02-15T11:15:08.157Z,2.50
2018-02-15T11:17:37.296Z,2.50
2018-02-15T11:20:05.550Z,2.50
2018-02-15T11:22:33.939Z,2.60
2018-02-15T11:25:02.238Z,2.70
2018-02-15T11:27:30.517Z,2.70
2018-02-15T11:29:58.807Z,2.80
2018-02-15T11:32:28.572Z,2.80
2018-02-15T11:34:56.835Z,2.70
2018-02-15T11:37:25.254Z,2.90
2018-02-15T11:39:53.535Z,2.90
2018-02-15T11:42:21.815Z,3.00
2018-02-15T11:44:50.094Z,3.00
2018-02-15T11:47:18.492Z,3.00
2018-02-15T11:49:47.531Z,3.00
2018-02-15T11:52:15.796Z,3.00
2018-02-15T11:54:44.046Z,3.00
2018-02-15T11:57:13.108Z,3.00
2018-02-15T11:59:41.363Z,3.00
2018-02-15T12:02:09.627Z,3.10
2018-02-15T12:04:37.891Z,3.10
2018-02-15T12:07:06.154Z,3.10
2018-02-15T12:09:35.310Z,3.10
2018-02-15T12:12:03.586Z,3.20
2018-02-15T12:14:31.819Z,3.20
2018-02-15T12:17:00.110Z,3.20
2018-02-15T12:19:28.421Z,3.10
2018-02-15T12:21:56.735Z,3.20
2018-02-15T12:24:25.751Z,3.20
2018-02-15T12:26:53.990Z,3.20
2018-02-15T12:29:23.037Z,3.20
2018-02-15T12:31:51.267Z,3.20
2018-02-15T12:34:19.538Z,3.20
2018-02-15T12:36:47.903Z,3.30
2018-02-15T12:39:16.941Z,3.30
2018-02-15T12:41:45.188Z,3.30
2018-02-15T12:44:13.460Z,3.30
2018-02-15T12:46:41.758Z,3.40
2018-02-15T12:49:10.023Z,3.40
2018-02-15T12:51:38.270Z,3.40
2018-02-15T12:54:06.560Z,3.40
2018-02-15T12:56:34.802Z,3.40
2018-02-15T12:59:03.911Z,3.50
2018-02-15T13:01:32.238Z,3.40
2018-02-15T13:04:00.530Z,3.50
2018-02-15T13:06:28.777Z,3.60
2018-02-15T13:08:57.204Z,3.60
2018-02-15T13:11:26.438Z,3.60
2018-02-15T13:13:54.850Z,3.60
2018-02-15T13:16:35.143Z,3.70
2018-02-15T13:19:15.208Z,3.70
2018-02-15T13:21:44.190Z,3.60
2018-02-15T13:24:13.267Z,3.70
2018-02-15T13:26:42.318Z,3.70
2018-02-15T13:29:10.580Z,3.60
2018-02-15T13:31:38.861Z,3.70
2018-02-15T13:34:07.107Z,3.70
2018-02-15T13:36:35.375Z,3.70
2018-02-15T13:39:03.622Z,3.70
2018-02-15T13:41:31.893Z,3.70
2018-02-15T13:44:00.207Z,3.60
2018-02-15T13:46:29.222Z,3.70
2018-02-15T13:48:57.516Z,3.60
2018-02-15T13:51:26.092Z,3.70
2018-02-15T13:53:54.335Z,3.70
2018-02-15T13:56:22.622Z,3.80
2018-02-15T13:58:50.845Z,3.80
2018-02-15T14:01:20.674Z,3.80
2018-02-15T14:03:48.882Z,3.80
2018-02-15T14:06:17.153Z,3.90
2018-02-15T14:08:45.452Z,3.90
2018-02-15T14:11:13.760Z,4.00
2018-02-15T14:13:42.171Z,4.00
2018-02-15T14:16:10.443Z,4.00
2018-02-15T14:18:38.749Z,4.00
2018-02-15T14:21:07.019Z,4.10
2018-02-15T14:23:35.275Z,4.10
2018-02-15T14:26:03.550Z,4.20
2018-02-15T14:28:31.827Z,4.20
2018-02-15T14:31:00.090Z,4.20
2018-02-15T14:33:29.131Z,4.30
2018-02-15T14:35:57.434Z,4.30
2018-02-15T14:38:26.468Z,4.40
2018-02-15T14:40:54.728Z,4.40
2018-02-15T14:43:23.046Z,4.40
2018-02-15T14:45:51.348Z,4.40
2018-02-15T14:48:19.622Z,4.50
2018-02-15T14:50:47.901Z,4.50
2018-02-15T14:53:16.226Z,4.50
2018-02-15T14:55:44.499Z,4.50
2018-02-15T14:58:12.757Z,4.50
2018-02-15T15:00:41.100Z,4.50
2018-02-15T15:03:09.352Z,4.60
2018-02-15T15:05:37.623Z,4.60
2018-02-15T15:08:05.971Z,4.60
2018-02-15T15:10:34.254Z,4.60
2018-02-15T15:13:02.506Z,4.70
2018-02-15T15:15:30.776Z,4.70
2018-02-15T15:17:59.803Z,4.80
2018-02-15T15:20:28.100Z,4.70
2018-02-15T15:22:56.351Z,4.80
2018-02-15T15:25:24.879Z,4.80
2018-02-15T15:27:53.102Z,4.70
2018-02-15T15:30:21.416Z,4.70
2018-02-15T15:32:49.696Z,4.70
2018-02-15T15:35:17.952Z,4.70
2018-02-15T15:37:46.380Z,4.70
2018-02-15T15:40:15.426Z,4.80
2018-02-15T15:42:43.726Z,4.70
2018-02-15T15:45:12.747Z,4.80
2018-02-15T15:47:41.017Z,4.80
2018-02-15T15:50:09.305Z,4.80
2018-02-15T15:52:37.570Z,4.90
2018-02-15T15:55:05.880Z,4.80
2018-02-15T15:57:34.155Z,4.90
2018-02-15T16:00:02.395Z,4.90
2018-02-15T16:02:30.676Z,4.90
2018-02-15T16:04:58.963Z,4.90
2018-02-15T16:07:27.223Z,4.90
2018-02-15T16:09:55.502Z,5.00
2018-02-15T16:12:23.872Z,4.90
2018-02-15T16:14:52.055Z,5.00
2018-02-15T16:17:20.290Z,4.90
2018-02-15T16:19:49.348Z,4.90
2018-02-15T16:22:17.625Z,4.90
2018-02-15T16:24:45.918Z,4.90
2018-02-15T16:27:14.183Z,4.90
2018-02-15T16:29:42.482Z,4.80
2018-02-15T16:32:10.743Z,4.80
2018-02-15T16:34:39.050Z,4.80
2018-02-15T16:37:08.112Z,4.80
2018-02-15T16:39:36.377Z,4.70
2018-02-15T16:42:04.663Z,4.80
2018-02-15T16:44:32.939Z,4.70
2018-02-15T16:47:01.197Z,4.70
2018-02-15T16:49:29.468Z,4.70
2018-02-15T16:51:57.751Z,4.70
2018-02-15T16:54:26.130Z,4.70
2018-02-15T16:56:54.516Z,4.70
2018-02-15T16:59:22.781Z,4.70
2018-02-15T17:01:51.094Z,4.60
2018-02-15T17:04:20.104Z,4.60
2018-02-15T17:06:48.904Z,4.60
2018-02-15T17:09:17.184Z,4.70
2018-02-15T17:11:45.571Z,4.70
2018-02-15T17:14:13.823Z,4.70
2018-02-15T17:16:42.137Z,4.80
2018-02-15T17:19:10.399Z,4.80
2018-02-15T17:21:38.674Z,4.90
2018-02-15T17:24:07.031Z,4.90
2018-02-15T17:26:35.298Z,5.00
2018-02-15T17:29:03.711Z,5.00
2018-02-15T17:31:31.939Z,5.00
2018-02-15T17:34:00.251Z,5.00
2018-02-15T17:36:28.514Z,5.00
2018-02-15T17:38:56.798Z,5.00
2018-02-15T17:41:25.066Z,5.10
2018-02-15T17:43:53.350Z,5.10
2018-02-15T17:46:21.607Z,5.10
2018-02-15T17:48:49.890Z,5.10
2018-02-15T17:51:18.446Z,5.10
2018-02-15T17:53:46.768Z,5.10
2018-02-15T17:56:15.035Z,5.10
2018-02-15T17:58:43.451Z,5.10
2018-02-15T18:01:11.824Z,5.10
2018-02-15T18:03:40.063Z,5.10
2018-02-15T18:06:08.350Z,5.20
2018-02-15T18:08:36.627Z,5.20
2018-02-15T18:11:04.896Z,5.20
2018-02-15T18:13:33.193Z,5.20
2018-02-15T18:16:01.451Z,5.20
2018-02-15T18:18:29.797Z,5.20
2018-02-15T18:20:58.048Z,5.20
2018-02-15T18:23:26.307Z,5.20
2018-02-15T18:25:54.572Z,5.20
2018-02-15T18:28:22.817Z,5.20
2018-02-15T18:30:51.135Z,5.20
2018-02-15T18:33:19.568Z,5.20
2018-02-15T18:35:47.882Z,5.20
2018-02-15T18:38:16.166Z,5.20
2018-02-15T18:40:45.190Z,5.30
2018-02-15T18:43:13.483Z,5.20
2018-02-15T18:45:41.735Z,5.30
2018-02-15T18:48:10.030Z,5.30
2018-02-15T18:50:38.445Z,5.30
2018-02-15T18:53:07.529Z,5.30
2018-02-15T18:55:35.772Z,5.30
2018-02-15T18:58:04.048Z,5.30
2018-02-15T19:00:32.279Z,5.30
2018-02-15T19:03:01.328Z,5.30
2018-02-15T19:05:29.577Z,5.20
2018-02-15T19:07:57.891Z,5.20
2018-02-15T19:10:26.157Z,5.20
2018-02-15T19:12:54.450Z,5.20
2018-02-15T19:15:22.702Z,5.10
2018-02-15T19:17:51.108Z,5.10
2018-02-15T19:20:20.320Z,5.00
2018-02-15T19:22:49.382Z,4.90
2018-02-15T19:25:17.626Z,4.90
2018-02-15T19:27:45.940Z,4.90
2018-02-15T19:30:15.035Z,4.90
2018-02-15T19:32:44.054Z,4.80
2018-02-15T19:35:13.264Z,4.80
2018-02-15T19:37:41.534Z,4.80
2018-02-15T19:40:10.568Z,4.80
2018-02-15T19:42:38.855Z,4.80
2018-02-15T19:45:07.151Z,4.80
2018-02-15T19:47:35.411Z,4.70
2018-02-15T19:50:04.850Z,4.60
2018-02-15T19:52:33.136Z,4.60
2018-02-15T19:55:01.479Z,4.60
2018-02-15T19:57:29.775Z,4.50
2018-02-15T19:59:58.084Z,4.50
2018-02-15T20:02:26.375Z,4.40
2018-02-15T20:04:54.633Z,4.30
2018-02-15T20:07:23.016Z,4.30
2018-02-15T20:09:51.272Z,4.20
2018-02-15T20:12:19.587Z,4.20
2018-02-15T20:14:49.420Z,4.10
2018-02-15T20:17:17.699Z,4.10
2018-02-15T20:19:46.727Z,4.00
2018-02-15T20:22:15.031Z,4.00
2018-02-15T20:24:43.313Z,4.00
2018-02-15T20:27:11.553Z,4.00
2018-02-15T20:29:39.822Z,4.00
2018-02-15T20:32:08.117Z,3.90
2018-02-15T20:34:36.381Z,4.00
2018-02-15T20:37:04.674Z,3.90
2018-02-15T20:39:33.039Z,3.80
2018-02-15T20:42:01.388Z,3.80
2018-02-15T20:44:30.488Z,3.70
2018-02-15T20:46:59.556Z,3.70
2018-02-15T20:49:27.822Z,3.60
2018-02-15T20:51:56.427Z,3.60
2018-02-15T20:54:24.743Z,3.60
2018-02-15T20:56:53.022Z,3.60
2018-02-15T20:59:21.339Z,3.50
2018-02-15T21:01:49.652Z,3.50
2018-02-15T21:04:18.134Z,3.40
2018-02-15T21:06:46.398Z,3.40
2018-02-15T21:09:14.684Z,3.30
2018-02-15T21:11:42.926Z,3.30
2018-02-15T21:14:11.992Z,3.20
2018-02-15T21:16:40.281Z,3.10
2018-02-15T21:19:08.536Z,3.20
2018-02-15T21:21:36.802Z,3.10
2018-02-15T21:24:05.212Z,3.10
2018-02-15T21:26:33.484Z,3.10
2018-02-15T21:29:01.762Z,3.10
2018-02-15T21:31:30.029Z,3.00
2018-02-15T21:33:58.304Z,3.00
2018-02-15T21:36:26.609Z,3.00
2018-02-15T21:38:54.855Z,3.00
2018-02-15T21:41:23.119Z,3.00
2018-02-15T21:43:51.373Z,3.00
2018-02-15T21:46:19.640Z,3.00
2018-02-15T21:48:48.007Z,3.00
2018-02-15T21:51:16.306Z,2.90
2018-02-15T21:53:44.580Z,2.90
2018-02-15T21:56:12.814Z,2.90
2018-02-15T21:58:41.086Z,2.90
2018-02-15T22:01:09.366Z,2.90
2018-02-15T22:03:37.623Z,2.90
2018-02-15T22:06:06.648Z,2.80
2018-02-15T22:08:34.958Z,2.80
2018-02-15T22:11:03.198Z,2.80
2018-02-15T22:13:31.459Z,2.70
2018-02-15T22:15:59.700Z,2.70
2018-02-15T22:18:28.783Z,2.70
2018-02-15T22:20:57.072Z,2.60
2018-02-15T22:23:25.347Z,2.60
2018-02-15T22:25:53.607Z,2.60
2018-02-15T22:28:21.910Z,2.60
2018-02-15T22:30:51.046Z,2.50
2018-02-15T22:33:19.335Z,2.50
2018-02-15T22:35:47.702Z,2.50
2018-02-15T22:38:15.991Z,2.50
2018-02-15T22:40:44.288Z,2.40
2018-02-15T22:43:12.542Z,2.40
2018-02-15T22:45:41.624Z,2.30
2018-02-15T22:48:09.892Z,2.30
2018-02-15T22:50:38.158Z,2.30
2018-02-15T22:53:06.420Z,2.30
2018-02-15T22:55:34.721Z,2.30
2018-02-15T22:58:02.990Z,2.30
2018-02-15T23:00:31.259Z,2.30
2018-02-15T23:02:59.619Z,2.30
2018-02-15T23:05:27.894Z,2.30
2018-02-15T23:07:56.176Z,2.30
2018-02-15T23:10:24.458Z,2.20
2018-02-15T23:12:52.714Z,2.20
2018-02-15T23:15:20.979Z,2.20
2018-02-15T23:17:50.001Z,2.20
2018-02-15T23:20:18.259Z,2.20
2018-02-15T23:22:46.682Z,2.30
2018-02-15T23:25:14.986Z,2.30
2018-02-15T23:27:43.239Z,2.30
2018-02-15T23:30:11.476Z,2.30
2018-02-15T23:32:40.517Z,2.30
2018-02-15T23:35:08.965Z,2.20
2018-02-15T23:37:37.226Z,2.30
2018-02-15T23:40:05.510Z,2.30
2018-02-15T23:42:33.803Z,2.20
2018-02-15T23:45:02.058Z,2.20
2018-02-15T23:47:30.319Z,2.20
2018-02-15T23:49:58.579Z,2.10
2018-02-15T23:52:26.839Z,2.10
2018-02-15T23:54:55.848Z,2.10
2018-02-15T23:57:24.158Z,2.00
2018-02-15T23:59:52.415Z,2.00
